METAR Data
IDs: Format: Raw Decoded Include TAF

Data at: 1954 UTC 17 Nov 2019

KDMO 171945Z AUTO 30010KT 10SM BKN026 OVC060 10/04 A2994 RMK AO2 T01000039
KDMO 171853Z AUTO 29010KT 10SM BKN075 OVC095 09/02 A2994 RMK AO2 SLP144 T00890022
KDMO 171753Z AUTO 22011KT 10SM BKN085 OVC110 07/02 A2996 RMK AO2 SLP150 60000 T00720022 10078 20061 58010
KDMO 171653Z AUTO 23008KT 10SM OVC100 07/02 A2998 RMK AO2 RAE02 SLP156 P0000 T00670022
KDMO 171553Z AUTO 21009KT 10SM -RA BKN065 OVC095 06/03 A2999 RMK AO2 RAB14 SLP160 P0000 T00610028
KDMO 171453Z AUTO 22012KT 10SM OVC070 07/01 A2999 RMK AO2 RAB09E33 SLP161 P0000 60000 T00670011 57004
KDMO 171353Z AUTO 22011KT 10SM OVC085 07/M02 A3000 RMK AO2 SLP163 T00721017
KDMO 171253Z AUTO 21011KT 10SM CLR 07/M02 A3000 RMK AO2 SLP162 T00721022
KDMO 171153Z AUTO 20010KT 10SM CLR 07/M02 A3001 RMK AO2 SLP164 T00721022 10078 20039 58014
KDMO 171053Z AUTO 20010KT 10SM CLR 08/M02 A3002 RMK AO2 SLP169 T00781022
KDMO 170953Z AUTO 19007KT 10SM CLR 07/M01 A3004 RMK AO2 SLP174 T00671011
KDMO 170853Z AUTO 18007KT 10SM CLR 06/M01 A3005 RMK AO2 SLP177 T00561011 58014
KDMO 170753Z AUTO 17007KT 10SM CLR 04/M02 A3006 RMK AO2 SLP183 T00441017
KDMO 170653Z AUTO 18006KT 10SM CLR 04/M03 A3009 RMK AO2 SLP190 T00441028
KDMO 170553Z AUTO 16005KT 10SM CLR 04/M02 A3009 RMK AO2 SLP193 T00391022 10072 20033 401391022 50002
KDMO 170453Z AUTO 16005KT 10SM CLR 05/M03 A3010 RMK AO2 SLP196 T00501028
KDMO 170353Z AUTO 14004KT 10SM CLR 04/M03 A3010 RMK AO2 SLP197 T00391028
KDMO 170253Z AUTO 15005KT 10SM CLR 04/M03 A3009 RMK AO2 SLP193 T00441028 58006
KDMO 170153Z AUTO 13007KT 10SM CLR 06/M03 A3009 RMK AO2 SLP197 T00561028
KDMO 170053Z AUTO 13007KT 10SM CLR 07/M03 A3010 RMK AO2 SLP198 T00671033
KDMO 162353Z AUTO 13007KT 10SM CLR 07/M03 A3010 RMK AO2 SLP201 T00721033 10139 20072 56010
KDMO 162253Z AUTO 13007KT 10SM CLR 09/M03 A3011 RMK AO2 SLP202 T00891033
KDMO 162153Z AUTO 13009KT 10SM CLR 12/M03 A3012 RMK AO2 SLP205 T01221033
KDMO 162053Z AUTO 13009KT 10SM CLR 13/M05 A3014 RMK AO2 SLP210 T01331050 56031
KDMO 161953Z AUTO 15010KT 10SM CLR 13/M05 A3016 RMK AO2 SLP218 T01331050
KDMO 161853Z AUTO 17009KT 10SM CLR 13/M04 A3020 RMK AO2 SLP230 T01281039
KDMO 161753Z AUTO 16008KT 10SM CLR 12/M03 A3023 RMK AO2 SLP241 T01171033 10117 21022 58023
KDMO 161653Z AUTO 17011KT 10SM CLR 10/M03 A3027 RMK AO2 SLP256 T01001033
KDMO 161553Z AUTO 16011KT 10SM CLR 08/M03 A3030 RMK AO2 SLP265 T00781033
KDMO 161453Z AUTO 14008KT 10SM CLR 03/M04 A3030 RMK AO2 SLP267 T00331039 50000
KDMO 161353Z AUTO 14004KT 10SM CLR 00/M06 A3030 RMK AO2 SLP269 T00001056
KDMO 161253Z AUTO 12007KT 10SM CLR M02/M07 A3030 RMK AO2 SLP268 T10171067
KDMO 161153Z AUTO 13006KT 10SM CLR M02/M07 A3030 RMK AO2 SLP268 60000 T10171067 10011 21022 56003
KDMO 161053Z AUTO 12005KT 10SM CLR M02/M07 A3031 RMK AO2 SLP270 T10171072
KDMO 160953Z AUTO 12005KT 10SM CLR M02/M07 A3030 RMK AO2 SLP267 T10171072
KDMO 160853Z AUTO 16006KT 9SM CLR M01/M08 A3031 RMK AO2 SNB42E51 SLP269 P0000 60000 T10111078 56007